createdAt,value
2022-10-12T00:03:14.253Z,27.95
2022-10-12T00:08:15.961Z,25.05
2022-10-12T00:13:17.669Z,28.92
2022-10-12T00:18:19.849Z,27.77
2022-10-12T00:23:21.608Z,25.38
2022-10-12T00:28:23.417Z,25.95
2022-10-12T00:33:25.457Z,24.67
2022-10-12T00:38:27.252Z,24.00
2022-10-12T00:43:38.932Z,24.85
2022-10-12T00:48:41.916Z,24.70
2022-10-12T00:53:49.456Z,31.77
2022-10-12T00:58:52.240Z,24.45
2022-10-12T01:03:54.095Z,28.23
2022-10-12T01:08:56.857Z,23.63
2022-10-12T01:13:58.769Z,24.63
2022-10-12T01:19:38.009Z,27.48
2022-10-12T01:25:02.087Z,25.33
2022-10-12T01:30:23.867Z,26.83
2022-10-12T01:35:39.694Z,32.13
2022-10-12T01:41:20.273Z,33.63
2022-10-12T01:46:24.840Z,26.98
2022-10-12T01:51:41.655Z,26.30
2022-10-12T01:57:04.546Z,25.70
2022-10-12T02:02:13.706Z,26.40
2022-10-12T02:12:28.908Z,26.60
2022-10-12T02:17:32.204Z,25.95
2022-10-12T02:22:37.044Z,26.60
2022-10-12T02:27:42.945Z,23.92
2022-10-12T02:32:54.387Z,21.77
2022-10-12T02:38:03.601Z,27.13
2022-10-12T02:48:23.218Z,23.27
2022-10-12T02:53:28.518Z,27.42
2022-10-12T02:58:30.259Z,24.83
2022-10-12T03:03:32.055Z,24.45
2022-10-12T03:08:33.865Z,23.08
2022-10-12T03:13:35.718Z,24.83
2022-10-12T03:18:38.258Z,20.80
2022-10-12T03:23:40.045Z,24.70
2022-10-12T03:28:41.902Z,25.08
2022-10-12T03:33:43.692Z,22.77
2022-10-12T03:38:45.403Z,22.15
2022-10-12T03:43:47.114Z,18.55
2022-10-12T03:48:48.876Z,21.35
2022-10-12T03:53:50.634Z,22.30
2022-10-12T03:58:52.368Z,22.33
2022-10-12T04:03:54.159Z,19.73
2022-10-12T04:08:56.078Z,22.10
2022-10-12T04:13:57.895Z,19.77
2022-10-12T04:18:59.609Z,18.35
2022-10-12T04:24:01.965Z,26.08
2022-10-12T04:29:03.960Z,22.35
2022-10-12T04:34:05.895Z,20.13
2022-10-12T04:39:08.848Z,20.45
2022-10-12T04:44:10.742Z,21.15
2022-10-12T04:49:12.511Z,23.02
2022-10-12T04:54:14.199Z,20.48
2022-10-12T04:59:16.069Z,21.65
2022-10-12T05:04:17.881Z,25.40
2022-10-12T05:09:19.658Z,22.48
2022-10-12T05:14:21.401Z,21.67
2022-10-12T05:19:23.101Z,20.10
2022-10-12T05:24:25.997Z,20.27
2022-10-12T05:29:27.726Z,20.30
2022-10-12T05:34:29.533Z,24.38
2022-10-12T05:39:31.288Z,16.95
2022-10-12T05:44:32.994Z,20.92
2022-10-12T05:49:36.810Z,19.88
2022-10-12T05:54:38.940Z,17.75
2022-10-12T05:59:41.117Z,15.50
2022-10-12T06:04:42.907Z,16.60
2022-10-12T06:09:44.799Z,18.10
2022-10-12T06:14:46.572Z,16.52
2022-10-12T06:19:50.609Z,18.88
2022-10-12T06:24:52.574Z,20.70
2022-10-12T06:29:54.277Z,16.40
2022-10-12T06:34:56.014Z,20.67
2022-10-12T06:39:57.945Z,25.27
2022-10-12T06:44:59.690Z,20.58
2022-10-12T06:50:01.488Z,20.15
2022-10-12T06:55:04.797Z,21.70
2022-10-12T07:00:08.367Z,24.75
2022-10-12T07:05:10.246Z,19.83
2022-10-12T07:10:13.838Z,22.20
2022-10-12T07:15:15.719Z,20.30
2022-10-12T07:20:17.530Z,23.13
2022-10-12T07:25:19.315Z,24.65
2022-10-12T07:30:21.026Z,15.45
2022-10-12T07:35:24.738Z,21.77
2022-10-12T07:40:26.526Z,22.75
2022-10-12T07:45:28.743Z,16.98
2022-10-12T07:50:30.465Z,18.77
2022-10-12T07:55:32.393Z,19.65
2022-10-12T08:00:34.281Z,18.17
2022-10-12T08:05:38.031Z,16.38
2022-10-12T08:10:39.974Z,17.38
2022-10-12T08:15:47.980Z,20.35
2022-10-12T08:20:51.988Z,13.75
2022-10-12T08:25:56.630Z,11.38
2022-10-12T08:30:58.397Z,15.68
2022-10-12T08:36:05.333Z,12.60
2022-10-12T08:41:46.089Z,11.32
2022-10-12T08:46:49.012Z,13.88
2022-10-12T08:51:54.562Z,14.32
2022-10-12T08:56:57.843Z,10.75
2022-10-12T09:02:13.099Z,11.60
2022-10-12T09:07:31.074Z,13.88
2022-10-12T09:12:44.873Z,9.93
2022-10-12T09:17:52.545Z,16.13
2022-10-12T09:23:19.696Z,12.23
2022-10-12T09:28:34.590Z,13.05
2022-10-12T09:33:54.034Z,13.93
2022-10-12T09:39:00.661Z,14.18
2022-10-12T09:44:05.259Z,11.43
2022-10-12T09:49:07.284Z,8.93
2022-10-12T09:54:22.434Z,14.57
2022-10-12T09:59:32.938Z,8.68
2022-10-12T10:04:34.789Z,7.47
2022-10-12T10:09:36.844Z,8.32
2022-10-12T10:14:38.786Z,10.50
2022-10-12T10:19:40.732Z,9.57
2022-10-12T10:24:45.121Z,6.80
2022-10-12T10:29:48.449Z,6.80
2022-10-12T10:35:22.936Z,12.70
2022-10-12T10:40:30.217Z,6.95
2022-10-12T10:51:05.106Z,8.27
2022-10-12T10:56:23.069Z,7.38
2022-10-12T11:01:32.862Z,7.70
2022-10-12T11:06:41.706Z,12.15
2022-10-12T11:11:51.344Z,8.15
2022-10-12T11:16:58.329Z,8.15
2022-10-12T11:22:20.970Z,6.47
2022-10-12T11:27:34.074Z,7.18
2022-10-12T11:32:40.068Z,8.52
2022-10-12T11:38:26.018Z,8.18
2022-10-12T11:43:36.033Z,10.35
2022-10-12T11:48:59.754Z,8.15
2022-10-12T11:54:34.593Z,10.30
2022-10-12T11:59:55.457Z,5.70
2022-10-12T12:04:58.883Z,5.55
2022-10-12T12:10:22.948Z,7.82
2022-10-12T12:15:24.742Z,6.63
2022-10-12T12:20:46.919Z,6.03
2022-10-12T12:26:05.999Z,9.27
2022-10-12T12:31:17.503Z,9.50
2022-10-12T12:36:33.137Z,6.97
2022-10-12T12:42:01.375Z,8.68
2022-10-12T12:47:08.453Z,7.65
2022-10-12T12:52:27.126Z,7.28
2022-10-12T12:57:53.623Z,6.75
2022-10-12T13:03:46.914Z,8.07
2022-10-12T13:08:51.227Z,6.97
2022-10-12T13:14:16.346Z,6.65
2022-10-12T13:19:22.143Z,9.85
2022-10-12T13:24:50.412Z,5.82
2022-10-12T13:30:02.854Z,7.05
2022-10-12T13:35:38.083Z,7.15
2022-10-12T13:40:58.709Z,9.05
2022-10-12T13:46:01.348Z,9.07
2022-10-12T13:51:05.141Z,7.05
2022-10-12T13:56:17.933Z,5.55
2022-10-12T14:01:19.668Z,10.75
2022-10-12T14:06:37.922Z,6.82
2022-10-12T14:11:40.697Z,7.20
2022-10-12T14:16:42.727Z,8.60
2022-10-12T14:21:47.676Z,6.38
2022-10-12T14:27:02.861Z,9.82
2022-10-12T14:32:42.015Z,7.80
2022-10-12T14:37:44.057Z,6.53
2022-10-12T14:43:00.158Z,8.95
2022-10-12T14:48:03.296Z,6.70
2022-10-12T14:53:10.621Z,10.02
2022-10-12T14:58:16.884Z,6.78
2022-10-12T15:03:20.148Z,7.18
2022-10-12T15:08:21.889Z,6.13
2022-10-12T15:13:23.688Z,6.85
2022-10-12T15:18:25.442Z,6.28
2022-10-12T15:23:27.130Z,10.68
2022-10-12T15:28:32.175Z,8.85
2022-10-12T15:33:34.014Z,11.25
2022-10-12T15:38:38.145Z,8.90
2022-10-12T15:43:42.046Z,10.40
2022-10-12T15:48:46.325Z,5.57
2022-10-12T15:53:48.288Z,7.18
2022-10-12T15:58:50.203Z,10.27
2022-10-12T16:03:52.038Z,9.40
2022-10-12T16:08:53.942Z,6.28
2022-10-12T16:13:56.844Z,11.02
2022-10-12T16:18:59.103Z,10.30
2022-10-12T16:24:01.357Z,11.93
2022-10-12T16:29:03.484Z,12.80
2022-10-12T16:34:05.213Z,8.88
2022-10-12T16:39:07.186Z,8.57
2022-10-12T16:44:08.918Z,9.30
2022-10-12T16:49:10.643Z,8.35
2022-10-12T16:54:12.420Z,9.98
2022-10-12T16:59:14.213Z,10.95
2022-10-12T17:04:15.912Z,9.52
2022-10-12T17:09:17.654Z,10.73
2022-10-12T17:14:19.502Z,10.20
2022-10-12T17:19:27.499Z,57.13
2022-10-12T17:24:31.063Z,12.23
2022-10-12T17:29:36.371Z,12.95
2022-10-12T17:34:40.848Z,11.73
2022-10-12T17:39:46.204Z,9.27
2022-10-12T17:44:48.032Z,9.77
2022-10-12T17:49:49.863Z,12.68
2022-10-12T17:54:51.562Z,12.10
2022-10-12T17:59:53.279Z,12.30
2022-10-12T18:04:55.187Z,11.80
2022-10-12T18:15:07.333Z,11.32
2022-10-12T18:20:09.665Z,10.38
2022-10-12T18:25:11.373Z,17.35
2022-10-12T18:30:13.355Z,24.85
2022-10-12T18:35:15.136Z,14.57
2022-10-12T18:40:17.219Z,10.85
2022-10-12T18:45:19.125Z,13.48
2022-10-12T18:50:21.193Z,12.63
2022-10-12T18:55:23.507Z,12.82
2022-10-12T19:00:25.254Z,19.65
2022-10-12T19:05:27.125Z,11.80
2022-10-12T19:10:28.921Z,10.63
2022-10-12T19:15:30.717Z,11.38
2022-10-12T19:20:35.837Z,11.65
2022-10-12T19:25:38.417Z,12.57
2022-10-12T19:30:40.555Z,13.63
2022-10-12T19:35:42.311Z,9.15
2022-10-12T19:40:44.097Z,13.07
2022-10-12T19:45:46.191Z,12.98
2022-10-12T19:50:47.925Z,16.25
2022-10-12T19:55:51.170Z,13.05
2022-10-12T20:00:53.117Z,11.93
2022-10-12T20:05:55.109Z,12.13
2022-10-12T20:10:56.844Z,8.63
2022-10-12T20:15:58.951Z,11.32
2022-10-12T20:21:04.266Z,11.98
2022-10-12T20:26:08.185Z,12.95
2022-10-12T20:31:10.253Z,10.73
2022-10-12T20:36:20.594Z,12.20
2022-10-12T20:41:23.681Z,13.20
2022-10-12T20:46:26.983Z,11.88
2022-10-12T20:51:36.602Z,12.90
2022-10-12T20:56:40.927Z,11.45
2022-10-12T21:01:42.740Z,14.88
2022-10-12T21:06:44.457Z,11.77
2022-10-12T21:11:49.351Z,10.63
2022-10-12T21:16:53.391Z,10.57
2022-10-12T21:21:55.466Z,9.88
2022-10-12T21:26:57.173Z,12.55
2022-10-12T21:31:58.887Z,10.98
2022-10-12T21:37:00.605Z,11.18
2022-10-12T21:42:02.357Z,14.77
2022-10-12T21:47:04.278Z,12.60
2022-10-12T21:52:05.968Z,12.88
2022-10-12T21:57:07.669Z,13.50
2022-10-12T22:02:09.366Z,10.82
2022-10-12T22:07:14.581Z,12.10
2022-10-12T22:12:19.089Z,12.13
2022-10-12T22:17:20.958Z,13.38
2022-10-12T22:22:22.726Z,10.18
2022-10-12T22:27:24.442Z,11.02
2022-10-12T22:32:26.757Z,10.15
2022-10-12T22:37:28.523Z,13.43
2022-10-12T22:42:30.416Z,11.18
2022-10-12T22:47:33.918Z,13.88
2022-10-12T22:52:36.081Z,12.40
2022-10-12T22:57:37.825Z,11.00
2022-10-12T23:02:39.521Z,10.38
2022-10-12T23:07:41.219Z,12.40
2022-10-12T23:12:42.980Z,13.30
2022-10-12T23:17:44.732Z,17.77
2022-10-12T23:22:46.438Z,14.75
2022-10-12T23:27:48.122Z,14.48
2022-10-12T23:32:49.840Z,17.02
2022-10-12T23:37:51.556Z,13.35
2022-10-12T23:42:53.369Z,11.02
2022-10-12T23:47:55.078Z,12.10
2022-10-12T23:52:56.774Z,11.52
2022-10-12T23:57:58.508Z,10.73
